sensor_id;sensor_type;location;lat;lon;timestamp;pressure;altitude;pressure_sealevel;temperature;humidity
61026;BME280;46911;32.650;-16.902;2024-02-21T00:01:16;102541.31;;;16.64;80.21
61026;BME280;46911;32.650;-16.902;2024-02-21T00:03:17;102534.47;;;16.58;80.47
61026;BME280;46911;32.650;-16.902;2024-02-21T00:05:20;102529.38;;;16.53;80.53
61026;BME280;46911;32.650;-16.902;2024-02-21T00:07:23;102526.97;;;16.49;80.81
61026;BME280;46911;32.650;-16.902;2024-02-21T00:09:24;102542.19;;;16.50;81.20
61026;BME280;46911;32.650;-16.902;2024-02-21T00:11:28;102539.97;;;16.42;81.44
61026;BME280;46911;32.650;-16.902;2024-02-21T00:13:32;102551.25;;;16.34;82.02
61026;BME280;46911;32.650;-16.902;2024-02-21T00:15:33;102540.97;;;16.27;82.44
61026;BME280;46911;32.650;-16.902;2024-02-21T00:17:36;102541.22;;;16.22;82.74
61026;BME280;46911;32.650;-16.902;2024-02-21T00:19:37;102503.94;;;16.01;82.88
61026;BME280;46911;32.650;-16.902;2024-02-21T00:21:38;102534.03;;;16.08;83.30
61026;BME280;46911;32.650;-16.902;2024-02-21T00:23:38;102527.31;;;16.01;83.62
61026;BME280;46911;32.650;-16.902;2024-02-21T00:25:39;102522.31;;;15.95;83.97
61026;BME280;46911;32.650;-16.902;2024-02-21T00:27:43;102526.81;;;15.94;84.31
61026;BME280;46911;32.650;-16.902;2024-02-21T00:29:49;102528.84;;;15.90;84.53
61026;BME280;46911;32.650;-16.902;2024-02-21T00:31:50;102520.47;;;15.81;84.92
61026;BME280;46911;32.650;-16.902;2024-02-21T00:33:55;102518.69;;;15.80;84.97
61026;BME280;46911;32.650;-16.902;2024-02-21T00:35:56;102521.03;;;15.86;85.30
61026;BME280;46911;32.650;-16.902;2024-02-21T00:37:59;102511.50;;;15.80;85.37
61026;BME280;46911;32.650;-16.902;2024-02-21T00:40:00;102502.22;;;15.70;85.45
61026;BME280;46911;32.650;-16.902;2024-02-21T00:42:04;102515.22;;;15.78;85.69
61026;BME280;46911;32.650;-16.902;2024-02-21T00:44:07;102497.25;;;15.64;85.78
61026;BME280;46911;32.650;-16.902;2024-02-21T00:46:10;102521.56;;;15.77;85.73
61026;BME280;46911;32.650;-16.902;2024-02-21T00:48:13;102509.75;;;15.79;85.91
61026;BME280;46911;32.650;-16.902;2024-02-21T00:50:16;102509.84;;;15.78;85.87
61026;BME280;46911;32.650;-16.902;2024-02-21T00:52:17;102505.50;;;15.75;86.06
61026;BME280;46911;32.650;-16.902;2024-02-21T00:54:20;102476.78;;;15.61;85.84
61026;BME280;46911;32.650;-16.902;2024-02-21T00:56:21;102504.66;;;15.74;85.86
61026;BME280;46911;32.650;-16.902;2024-02-21T00:58:22;102478.41;;;15.64;85.90
61026;BME280;46911;32.650;-16.902;2024-02-21T01:00:23;102488.97;;;15.67;86.37
61026;BME280;46911;32.650;-16.902;2024-02-21T01:02:24;102481.31;;;15.61;86.41
61026;BME280;46911;32.650;-16.902;2024-02-21T01:04:25;102476.88;;;15.60;86.52
61026;BME280;46911;32.650;-16.902;2024-02-21T01:06:31;102460.72;;;15.45;86.38
61026;BME280;46911;32.650;-16.902;2024-02-21T01:08:36;102448.22;;;15.44;86.37
61026;BME280;46911;32.650;-16.902;2024-02-21T01:10:37;102466.38;;;15.55;86.52
61026;BME280;46911;32.650;-16.902;2024-02-21T01:12:40;102460.16;;;15.54;87.01
61026;BME280;46911;32.650;-16.902;2024-02-21T01:14:41;102447.38;;;15.44;86.73
61026;BME280;46911;32.650;-16.902;2024-02-21T01:16:42;102443.25;;;15.38;87.34
61026;BME280;46911;32.650;-16.902;2024-02-21T01:18:43;102444.59;;;15.45;87.47
61026;BME280;46911;32.650;-16.902;2024-02-21T01:20:46;102457.38;;;15.56;87.45
61026;BME280;46911;32.650;-16.902;2024-02-21T01:22:47;102434.47;;;15.34;87.70
61026;BME280;46911;32.650;-16.902;2024-02-21T01:24:52;102462.00;;;15.54;87.46
61026;BME280;46911;32.650;-16.902;2024-02-21T01:26:53;102463.78;;;15.53;87.35
61026;BME280;46911;32.650;-16.902;2024-02-21T01:28:59;102445.81;;;15.39;87.47
61026;BME280;46911;32.650;-16.902;2024-02-21T01:31:02;102458.22;;;15.42;87.89
61026;BME280;46911;32.650;-16.902;2024-02-21T01:33:06;102451.38;;;15.36;87.74
61026;BME280;46911;32.650;-16.902;2024-02-21T01:35:10;102469.06;;;15.55;87.34
61026;BME280;46911;32.650;-16.902;2024-02-21T01:37:11;102471.38;;;15.47;87.15
61026;BME280;46911;32.650;-16.902;2024-02-21T01:39:14;102478.50;;;15.48;87.10
61026;BME280;46911;32.650;-16.902;2024-02-21T01:41:15;102446.97;;;15.35;87.10
61026;BME280;46911;32.650;-16.902;2024-02-21T01:43:18;102458.28;;;15.40;86.79
61026;BME280;46911;32.650;-16.902;2024-02-21T01:45:20;102454.38;;;15.46;86.06
61026;BME280;46911;32.650;-16.902;2024-02-21T01:47:24;102474.00;;;15.63;85.57
61026;BME280;46911;32.650;-16.902;2024-02-21T01:49:27;102480.06;;;15.66;85.24
61026;BME280;46911;32.650;-16.902;2024-02-21T01:51:28;102478.22;;;15.67;84.50
61026;BME280;46911;32.650;-16.902;2024-02-21T01:53:42;102475.84;;;15.62;84.58
61026;BME280;46911;32.650;-16.902;2024-02-21T01:55:46;102478.63;;;15.61;84.32
61026;BME280;46911;32.650;-16.902;2024-02-21T01:57:52;102466.59;;;15.52;84.52
61026;BME280;46911;32.650;-16.902;2024-02-21T01:59:54;102467.63;;;15.49;84.80
61026;BME280;46911;32.650;-16.902;2024-02-21T02:01:58;102449.81;;;15.32;84.88
61026;BME280;46911;32.650;-16.902;2024-02-21T02:04:02;102463.00;;;15.37;85.14
61026;BME280;46911;32.650;-16.902;2024-02-21T02:06:06;102460.59;;;15.32;85.48
61026;BME280;46911;32.650;-16.902;2024-02-21T02:08:10;102459.81;;;15.30;85.86
61026;BME280;46911;32.650;-16.902;2024-02-21T02:10:11;102440.59;;;15.22;85.46
61026;BME280;46911;32.650;-16.902;2024-02-21T02:12:19;102461.91;;;15.25;85.95
61026;BME280;46911;32.650;-16.902;2024-02-21T02:14:23;102456.66;;;15.23;86.22
61026;BME280;46911;32.650;-16.902;2024-02-21T02:16:24;102459.78;;;15.16;86.89
61026;BME280;46911;32.650;-16.902;2024-02-21T02:18:30;102439.88;;;15.04;86.65
61026;BME280;46911;32.650;-16.902;2024-02-21T02:20:33;102449.97;;;15.15;86.91
61026;BME280;46911;32.650;-16.902;2024-02-21T02:22:36;102445.16;;;15.05;87.32
61026;BME280;46911;32.650;-16.902;2024-02-21T02:24:37;102423.59;;;14.91;87.84
61026;BME280;46911;32.650;-16.902;2024-02-21T02:26:43;102435.72;;;14.98;88.23
61026;BME280;46911;32.650;-16.902;2024-02-21T02:28:46;102439.13;;;15.02;88.57
61026;BME280;46911;32.650;-16.902;2024-02-21T02:30:48;102444.56;;;15.00;88.70
61026;BME280;46911;32.650;-16.902;2024-02-21T02:32:53;102433.25;;;14.95;88.72
61026;BME280;46911;32.650;-16.902;2024-02-21T02:34:59;102377.91;;;14.61;88.84
61026;BME280;46911;32.650;-16.902;2024-02-21T02:37:06;102444.56;;;15.00;89.44
61026;BME280;46911;32.650;-16.902;2024-02-21T02:39:07;102421.28;;;14.85;89.61
61026;BME280;46911;32.650;-16.902;2024-02-21T02:41:11;102441.09;;;14.98;89.65
61026;BME280;46911;32.650;-16.902;2024-02-21T02:43:11;102444.56;;;15.00;89.93
61026;BME280;46911;32.650;-16.902;2024-02-21T02:45:17;102420.41;;;14.84;89.95
61026;BME280;46911;32.650;-16.902;2024-02-21T02:47:19;102443.19;;;14.93;90.24
61026;BME280;46911;32.650;-16.902;2024-02-21T02:49:22;102438.97;;;14.89;90.41
61026;BME280;46911;32.650;-16.902;2024-02-21T02:51:23;102432.66;;;14.90;90.81
61026;BME280;46911;32.650;-16.902;2024-02-21T02:53:28;102438.09;;;14.88;90.80
61026;BME280;46911;32.650;-16.902;2024-02-21T02:55:35;102432.66;;;14.90;91.17
61026;BME280;46911;32.650;-16.902;2024-02-21T02:57:41;102405.53;;;14.79;91.29
61026;BME280;46911;32.650;-16.902;2024-02-21T02:59:48;102400.34;;;14.76;91.11
61026;BME280;46911;32.650;-16.902;2024-02-21T03:01:52;102421.91;;;14.90;91.36
61026;BME280;46911;32.650;-16.902;2024-02-21T03:03:53;102411.06;;;14.92;91.11
61026;BME280;46911;32.650;-16.902;2024-02-21T03:05:54;102402.84;;;14.79;91.23
61026;BME280;46911;32.650;-16.902;2024-02-21T03:07:58;102422.06;;;14.87;91.52
61026;BME280;46911;32.650;-16.902;2024-02-21T03:10:02;102418.59;;;14.85;91.40
61026;BME280;46911;32.650;-16.902;2024-02-21T03:12:09;102412.63;;;14.80;91.63
61026;BME280;46911;32.650;-16.902;2024-02-21T03:14:10;102395.16;;;14.72;91.36
61026;BME280;46911;32.650;-16.902;2024-02-21T03:16:11;102421.53;;;14.80;91.61
61026;BME280;46911;32.650;-16.902;2024-02-21T03:18:12;102418.00;;;14.80;91.36
61026;BME280;46911;32.650;-16.902;2024-02-21T03:20:15;102415.50;;;14.77;91.48
61026;BME280;46911;32.650;-16.902;2024-02-21T03:22:16;102395.81;;;14.60;91.47
61026;BME280;46911;32.650;-16.902;2024-02-21T03:24:19;102415.84;;;14.70;91.40
61026;BME280;46911;32.650;-16.902;2024-02-21T03:26:23;102397.91;;;14.55;91.40
61026;BME280;46911;32.650;-16.902;2024-02-21T03:28:24;102393.59;;;14.52;91.06
61026;BME280;46911;32.650;-16.902;2024-02-21T03:30:25;102409.97;;;14.64;90.93
61026;BME280;46911;32.650;-16.902;2024-02-21T03:32:28;102383.81;;;14.51;90.65
61026;BME280;46911;32.650;-16.902;2024-02-21T03:34:29;102407.34;;;14.62;90.47
61026;BME280;46911;32.650;-16.902;2024-02-21T03:36:33;102404.88;;;14.59;90.43
61026;BME280;46911;32.650;-16.902;2024-02-21T03:38:38;102407.69;;;14.56;90.31
61026;BME280;46911;32.650;-16.902;2024-02-21T03:40:42;102399.03;;;14.51;90.88
61026;BME280;46911;32.650;-16.902;2024-02-21T03:42:47;102405.09;;;14.54;90.54
61026;BME280;46911;32.650;-16.902;2024-02-21T03:44:50;102411.34;;;14.55;90.30
61026;BME280;46911;32.650;-16.902;2024-02-21T03:46:54;102378.09;;;14.42;90.09
61026;BME280;46911;32.650;-16.902;2024-02-21T03:49:03;102387.53;;;14.49;90.02
61026;BME280;46911;32.650;-16.902;2024-02-21T03:51:07;102371.97;;;14.39;89.87
61026;BME280;46911;32.650;-16.902;2024-02-21T03:53:11;102390.97;;;14.51;90.00
61026;BME280;46911;32.650;-16.902;2024-02-21T03:55:11;102378.97;;;14.42;89.87
61026;BME280;46911;32.650;-16.902;2024-02-21T03:57:12;102391.88;;;14.51;89.64
61026;BME280;46911;32.650;-16.902;2024-02-21T03:59:13;102389.28;;;14.50;89.14
61026;BME280;46911;32.650;-16.902;2024-02-21T04:01:19;102369.53;;;14.35;88.78
61026;BME280;46911;32.650;-16.902;2024-02-21T04:03:19;102393.00;;;14.47;88.42
61026;BME280;46911;32.650;-16.902;2024-02-21T04:05:23;102388.50;;;14.48;87.95
61026;BME280;46911;32.650;-16.902;2024-02-21T04:07:28;102394.72;;;14.48;87.53
61026;BME280;46911;32.650;-16.902;2024-02-21T04:09:31;102391.44;;;14.43;87.32
61026;BME280;46911;32.650;-16.902;2024-02-21T04:11:32;102332.44;;;14.11;87.01
61026;BME280;46911;32.650;-16.902;2024-02-21T04:13:33;102366.31;;;14.28;86.69
61026;BME280;46911;32.650;-16.902;2024-02-21T04:15:36;102397.88;;;14.40;86.37
61026;BME280;46911;32.650;-16.902;2024-02-21T04:17:42;102367.31;;;14.27;86.37
61026;BME280;46911;32.650;-16.902;2024-02-21T04:19:45;102369.72;;;14.32;85.36
61026;BME280;46911;32.650;-16.902;2024-02-21T04:21:49;102391.34;;;14.45;85.09
61026;BME280;46911;32.650;-16.902;2024-02-21T04:23:49;102394.03;;;14.45;85.10
61026;BME280;46911;32.650;-16.902;2024-02-21T04:25:50;102394.13;;;14.43;84.57
61026;BME280;46911;32.650;-16.902;2024-02-21T04:27:51;102384.34;;;14.42;84.12
61026;BME280;46911;32.650;-16.902;2024-02-21T04:29:57;102378.88;;;14.44;83.82
61026;BME280;46911;32.650;-16.902;2024-02-21T04:32:02;102363.91;;;14.39;83.10
61026;BME280;46911;32.650;-16.902;2024-02-21T04:34:06;102381.38;;;14.47;83.15
61026;BME280;46911;32.650;-16.902;2024-02-21T04:36:09;102384.25;;;14.44;82.67
61026;BME280;46911;32.650;-16.902;2024-02-21T04:38:13;102387.13;;;14.40;82.55
61026;BME280;46911;32.650;-16.902;2024-02-21T04:40:21;102366.28;;;14.30;81.78
61026;BME280;46911;32.650;-16.902;2024-02-21T04:42:22;102392.50;;;14.40;82.07
61026;BME280;46911;32.650;-16.902;2024-02-21T04:44:23;102384.69;;;14.36;81.77
61026;BME280;46911;32.650;-16.902;2024-02-21T04:46:26;102361.34;;;14.22;81.55
61026;BME280;46911;32.650;-16.902;2024-02-21T04:48:30;102388.25;;;14.36;81.24
61026;BME280;46911;32.650;-16.902;2024-02-21T04:50:34;102376.91;;;14.31;81.05
61026;BME280;46911;32.650;-16.902;2024-02-21T04:52:40;102385.91;;;14.46;80.71
61026;BME280;46911;32.650;-16.902;2024-02-21T04:54:44;102369.28;;;14.39;80.43
61026;BME280;46911;32.650;-16.902;2024-02-21T04:56:47;102376.00;;;14.47;80.43
61026;BME280;46911;32.650;-16.902;2024-02-21T04:58:48;102358.03;;;14.33;80.83
61026;BME280;46911;32.650;-16.902;2024-02-21T05:00:49;102384.59;;;14.37;81.36
61026;BME280;46911;32.650;-16.902;2024-02-21T05:02:50;102336.25;;;14.07;81.74
61026;BME280;46911;32.650;-16.902;2024-02-21T05:04:52;102389.34;;;14.32;82.16
61026;BME280;46911;32.650;-16.902;2024-02-21T05:06:53;102378.28;;;14.22;82.46
61026;BME280;46911;32.650;-16.902;2024-02-21T05:08:58;102385.50;;;14.22;82.82
61026;BME280;46911;32.650;-16.902;2024-02-21T05:11:06;102339.16;;;13.86;83.19
61026;BME280;46911;32.650;-16.902;2024-02-21T05:13:10;102388.06;;;14.07;83.27
61026;BME280;46911;32.650;-16.902;2024-02-21T05:15:11;102395.94;;;14.11;83.41
61026;BME280;46911;32.650;-16.902;2024-02-21T05:17:12;102383.22;;;13.98;83.69
61026;BME280;46911;32.650;-16.902;2024-02-21T05:19:16;102405.03;;;14.08;83.86
61026;BME280;46911;32.650;-16.902;2024-02-21T05:21:19;102394.81;;;13.99;83.94
61026;BME280;46911;32.650;-16.902;2024-02-21T05:23:20;102418.44;;;14.08;84.04
61026;BME280;46911;32.650;-16.902;2024-02-21T05:25:23;102393.97;;;13.98;83.79
61026;BME280;46911;32.650;-16.902;2024-02-21T05:27:24;102394.81;;;13.99;83.44
61026;BME280;46911;32.650;-16.902;2024-02-21T05:29:27;102404.50;;;14.01;83.30
61026;BME280;46911;32.650;-16.902;2024-02-21T05:33:52;102406.94;;;14.06;82.90
61026;BME280;46911;32.650;-16.902;2024-02-21T05:35:55;102419.94;;;14.14;83.18
61026;BME280;46911;32.650;-16.902;2024-02-21T05:37:56;102423.56;;;14.13;83.19
61026;BME280;46911;32.650;-16.902;2024-02-21T05:39:57;102423.66;;;14.11;83.46
61026;BME280;46911;32.650;-16.902;2024-02-21T05:41:57;102420.28;;;14.07;83.72
61026;BME280;46911;32.650;-16.902;2024-02-21T05:44:01;102433.59;;;14.09;84.08
61026;BME280;46911;32.650;-16.902;2024-02-21T05:46:04;102425.38;;;14.12;84.27
61026;BME280;46911;32.650;-16.902;2024-02-21T05:48:05;102425.47;;;14.11;84.46
61026;BME280;46911;32.650;-16.902;2024-02-21T05:50:06;102437.94;;;14.12;85.59
61026;BME280;46911;32.650;-16.902;2024-02-21T05:52:09;102414.63;;;13.96;85.23
61026;BME280;46911;32.650;-16.902;2024-02-21T05:54:10;102439.06;;;14.07;85.66
61026;BME280;46911;32.650;-16.902;2024-02-21T05:56:14;102439.38;;;14.01;85.89
61026;BME280;46911;32.650;-16.902;2024-02-21T05:58:17;102445.63;;;14.02;86.52
61026;BME280;46911;32.650;-16.902;2024-02-21T06:00:18;102438.19;;;13.91;87.42
61026;BME280;46911;32.650;-16.902;2024-02-21T06:02:19;102430.38;;;13.86;87.55
61026;BME280;46911;32.650;-16.902;2024-02-21T06:04:22;102436.75;;;13.84;88.04
61026;BME280;46911;32.650;-16.902;2024-02-21T06:06:23;102454.00;;;13.96;88.53
61026;BME280;46911;32.650;-16.902;2024-02-21T06:08:24;102459.47;;;13.94;88.39
61026;BME280;46911;32.650;-16.902;2024-02-21T06:10:27;102463.00;;;13.95;88.73
61026;BME280;46911;32.650;-16.902;2024-02-21T06:12:35;102462.16;;;13.94;88.95
61026;BME280;46911;32.650;-16.902;2024-02-21T06:14:38;102461.97;;;13.97;89.01
61026;BME280;46911;32.650;-16.902;2024-02-21T06:16:39;102447.66;;;13.81;89.03
61026;BME280;46911;32.650;-16.902;2024-02-21T06:18:43;102446.47;;;13.86;88.83
61026;BME280;46911;32.650;-16.902;2024-02-21T06:20:46;102451.81;;;13.86;88.26
61026;BME280;46911;32.650;-16.902;2024-02-21T06:22:47;102452.72;;;13.87;88.27
61026;BME280;46911;32.650;-16.902;2024-02-21T06:24:50;102476.09;;;14.01;88.08
61026;BME280;46911;32.650;-16.902;2024-02-21T06:26:57;102465.53;;;13.98;87.78
61026;BME280;46911;32.650;-16.902;2024-02-21T06:29:06;102455.97;;;13.92;87.07
61026;BME280;46911;32.650;-16.902;2024-02-21T06:31:09;102474.72;;;13.94;86.85
61026;BME280;46911;32.650;-16.902;2024-02-21T06:33:14;102484.06;;;14.02;86.81
61026;BME280;46911;32.650;-16.902;2024-02-21T06:35:15;102466.56;;;13.95;86.73
61026;BME280;46911;32.650;-16.902;2024-02-21T06:37:17;102466.66;;;13.94;86.30
61026;BME280;46911;32.650;-16.902;2024-02-21T06:39:18;102475.47;;;13.96;86.37
61026;BME280;46911;32.650;-16.902;2024-02-21T06:41:24;102463.97;;;13.94;86.23
61026;BME280;46911;32.650;-16.902;2024-02-21T06:43:26;102479.81;;;13.98;86.43
61026;BME280;46911;32.650;-16.902;2024-02-21T06:45:29;102473.81;;;13.93;86.35
61026;BME280;46911;32.650;-16.902;2024-02-21T06:47:30;102482.50;;;13.98;86.59
61026;BME280;46911;32.650;-16.902;2024-02-21T06:49:33;102483.63;;;13.94;86.88
61026;BME280;46911;32.650;-16.902;2024-02-21T06:51:34;102466.53;;;13.79;87.14
61026;BME280;46911;32.650;-16.902;2024-02-21T06:53:37;102486.63;;;13.88;87.42
61026;BME280;46911;32.650;-16.902;2024-02-21T06:55:40;102468.31;;;13.79;87.60
61026;BME280;46911;32.650;-16.902;2024-02-21T06:57:44;102496.41;;;13.89;88.03
61026;BME280;46911;32.650;-16.902;2024-02-21T06:59:44;102503.34;;;13.93;88.10
61026;BME280;46911;32.650;-16.902;2024-02-21T07:01:49;102503.34;;;13.93;88.35
61026;BME280;46911;32.650;-16.902;2024-02-21T07:03:50;102512.28;;;13.94;88.57
61026;BME280;46911;32.650;-16.902;2024-02-21T07:05:56;102519.50;;;13.92;88.74
61026;BME280;46911;32.650;-16.902;2024-02-21T07:07:57;102509.81;;;13.89;88.58
61026;BME280;46911;32.650;-16.902;2024-02-21T07:10:00;102493.00;;;13.85;88.92
61026;BME280;46911;32.650;-16.902;2024-02-21T07:12:08;102497.53;;;13.85;88.94
61026;BME280;46911;32.650;-16.902;2024-02-21T07:14:13;102513.97;;;13.95;89.13
61026;BME280;46911;32.650;-16.902;2024-02-21T07:16:14;102478.91;;;13.82;88.75
61026;BME280;46911;32.650;-16.902;2024-02-21T07:18:17;102518.34;;;14.13;87.94
61026;BME280;46911;32.650;-16.902;2024-02-21T07:20:18;102519.28;;;14.12;87.88
61026;BME280;46911;32.650;-16.902;2024-02-21T07:22:26;102509.78;;;14.06;87.81
61026;BME280;46911;32.650;-16.902;2024-02-21T07:24:32;102498.78;;;13.95;87.85
61026;BME280;46911;32.650;-16.902;2024-02-21T07:26:35;102508.53;;;13.96;88.20
61026;BME280;46911;32.650;-16.902;2024-02-21T07:28:38;102521.44;;;14.05;88.33
61026;BME280;46911;32.650;-16.902;2024-02-21T07:30:39;102461.56;;;13.71;88.79
61026;BME280;46911;32.650;-16.902;2024-02-21T07:32:40;102496.50;;;13.87;88.62
61026;BME280;46911;32.650;-16.902;2024-02-21T07:34:44;102502.56;;;13.91;88.87
61026;BME280;46911;32.650;-16.902;2024-02-21T07:36:45;102513.84;;;13.98;88.85
61026;BME280;46911;32.650;-16.902;2024-02-21T07:38:46;102507.25;;;14.03;88.76
61026;BME280;46911;32.650;-16.902;2024-02-21T07:40:47;102520.28;;;14.11;88.80
61026;BME280;46911;32.650;-16.902;2024-02-21T07:42:48;102521.38;;;14.07;88.78
61026;BME280;46911;32.650;-16.902;2024-02-21T07:44:54;102503.97;;;13.98;88.93
61026;BME280;46911;32.650;-16.902;2024-02-21T07:46:59;102527.63;;;14.07;89.55
61026;BME280;46911;32.650;-16.902;2024-02-21T07:49:00;102523.81;;;14.12;89.31
61026;BME280;46911;32.650;-16.902;2024-02-21T07:51:01;102528.41;;;14.10;89.41
61026;BME280;46911;32.650;-16.902;2024-02-21T07:53:02;102530.03;;;14.12;89.34
61026;BME280;46911;32.650;-16.902;2024-02-21T07:55:06;102531.53;;;14.18;89.23
61026;BME280;46911;32.650;-16.902;2024-02-21T07:57:07;102530.66;;;14.17;89.50
61026;BME280;46911;32.650;-16.902;2024-02-21T07:59:08;102533.25;;;14.19;89.37
61026;BME280;46911;32.650;-16.902;2024-02-21T08:01:19;102531.53;;;14.18;89.42
61026;BME280;46911;32.650;-16.902;2024-02-21T08:03:23;102537.59;;;14.21;89.64
61026;BME280;46911;32.650;-16.902;2024-02-21T08:05:26;102540.22;;;14.23;89.50
61026;BME280;46911;32.650;-16.902;2024-02-21T08:07:27;102545.41;;;14.26;89.40
61026;BME280;46911;32.650;-16.902;2024-02-21T08:09:31;102557.28;;;14.38;88.95
61026;BME280;46911;32.650;-16.902;2024-02-21T08:11:32;102555.22;;;14.43;88.45
61026;BME280;46911;32.650;-16.902;2024-02-21T08:13:33;102562.25;;;14.46;87.71
61026;BME280;46911;32.650;-16.902;2024-02-21T08:15:34;102562.06;;;14.49;87.36
61026;BME280;46911;32.650;-16.902;2024-02-21T08:17:35;102574.56;;;14.50;86.87
61026;BME280;46911;32.650;-16.902;2024-02-21T08:19:36;102568.47;;;14.46;86.59
61026;BME280;46911;32.650;-16.902;2024-02-21T08:21:39;102580.44;;;14.56;86.06
61026;BME280;46911;32.650;-16.902;2024-02-21T08:23:43;102580.28;;;14.60;85.59
61026;BME280;46911;32.650;-16.902;2024-02-21T08:25:44;102578.22;;;14.65;85.25
61026;BME280;46911;32.650;-16.902;2024-02-21T08:27:47;102577.34;;;14.64;85.21
61026;BME280;46911;32.650;-16.902;2024-02-21T08:29:50;102580.66;;;14.69;84.99
61026;BME280;46911;32.650;-16.902;2024-02-21T08:31:54;102587.25;;;14.80;85.14
61026;BME280;46911;32.650;-16.902;2024-02-21T08:33:58;102594.00;;;14.87;84.75
61026;BME280;46911;32.650;-16.902;2024-02-21T08:36:05;102593.50;;;14.96;84.23
61026;BME280;46911;32.650;-16.902;2024-02-21T08:38:06;102597.56;;;15.03;83.81
61026;BME280;46911;32.650;-16.902;2024-02-21T08:40:10;102565.84;;;14.94;83.23
61026;BME280;46911;32.650;-16.902;2024-02-21T08:42:11;102566.09;;;15.05;82.91
61026;BME280;46911;32.650;-16.902;2024-02-21T08:44:12;102577.34;;;15.12;82.35
61026;BME280;46911;32.650;-16.902;2024-02-21T08:46:17;102598.84;;;15.28;82.25
61026;BME280;46911;32.650;-16.902;2024-02-21T08:48:21;102597.91;;;15.29;81.81
61026;BME280;46911;32.650;-16.902;2024-02-21T08:50:24;102609.06;;;15.37;81.58
61026;BME280;46911;32.650;-16.902;2024-02-21T08:52:29;102611.13;;;15.48;81.03
61026;BME280;46911;32.650;-16.902;2024-02-21T08:54:29;102619.03;;;15.51;81.03
61026;BME280;46911;32.650;-16.902;2024-02-21T08:56:33;102599.50;;;15.48;79.84
61026;BME280;46911;32.650;-16.902;2024-02-21T08:58:36;102622.91;;;15.62;79.86
61026;BME280;46911;32.650;-16.902;2024-02-21T09:00:37;102626.69;;;15.73;79.75
61026;BME280;46911;32.650;-16.902;2024-02-21T09:02:41;102600.31;;;15.64;79.29
61026;BME280;46911;32.650;-16.902;2024-02-21T09:04:48;102616.44;;;15.80;79.00
61026;BME280;46911;32.650;-16.902;2024-02-21T09:06:54;102605.75;;;15.79;79.02
61026;BME280;46911;32.650;-16.902;2024-02-21T09:08:57;102600.91;;;15.85;78.93
61026;BME280;46911;32.650;-16.902;2024-02-21T09:11:01;102599.25;;;15.83;79.17
61026;BME280;46911;32.650;-16.902;2024-02-21T09:13:04;102621.69;;;15.98;79.02
61026;BME280;46911;32.650;-16.902;2024-02-21T09:15:06;102624.59;;;16.09;78.88
61026;BME280;46911;32.650;-16.902;2024-02-21T09:17:10;102605.38;;;16.01;78.69
61026;BME280;46911;32.650;-16.902;2024-02-21T09:19:13;102617.03;;;16.16;78.57
61026;BME280;46911;32.650;-16.902;2024-02-21T09:21:14;102626.28;;;16.26;78.50
61026;BME280;46911;32.650;-16.902;2024-02-21T09:23:21;102611.22;;;16.22;78.34
61026;BME280;46911;32.650;-16.902;2024-02-21T09:25:27;102635.88;;;16.45;78.29
61026;BME280;46911;32.650;-16.902;2024-02-21T09:27:28;102639.72;;;16.55;78.26
61026;BME280;46911;32.650;-16.902;2024-02-21T09:29:29;102641.75;;;16.66;77.99
61026;BME280;46911;32.650;-16.902;2024-02-21T09:31:32;102649.16;;;16.77;77.90
61026;BME280;46911;32.650;-16.902;2024-02-21T09:33:36;102624.78;;;16.78;77.72
61026;BME280;46911;32.650;-16.902;2024-02-21T09:35:37;102645.50;;;17.06;77.52
61026;BME280;46911;32.650;-16.902;2024-02-21T09:37:41;102648.34;;;17.18;77.55
61026;BME280;46911;32.650;-16.902;2024-02-21T09:39:49;102627.91;;;17.28;76.89
61026;BME280;46911;32.650;-16.902;2024-02-21T09:41:59;102631.19;;;17.46;76.70
61026;BME280;46911;32.650;-16.902;2024-02-21T09:44:04;102656.16;;;17.77;76.25
61026;BME280;46911;32.650;-16.902;2024-02-21T09:46:08;102651.22;;;17.97;75.78
61026;BME280;46911;32.650;-16.902;2024-02-21T09:48:25;102658.09;;;18.28;75.29
61026;BME280;46911;32.650;-16.902;2024-02-21T09:50:34;102645.50;;;18.92;74.82
61026;BME280;46911;32.650;-16.902;2024-02-21T09:52:40;102660.25;;;20.09;72.82
61026;BME280;46911;32.650;-16.902;2024-02-21T09:54:45;102645.03;;;21.53;69.89
61026;BME280;46911;32.650;-16.902;2024-02-21T09:56:47;102657.78;;;22.99;65.06
61026;BME280;46911;32.650;-16.902;2024-02-21T09:58:50;102652.94;;;24.30;62.21
61026;BME280;46911;32.650;-16.902;2024-02-21T10:00:51;102638.66;;;25.39;57.32
61026;BME280;46911;32.650;-16.902;2024-02-21T10:02:58;102653.81;;;25.96;51.88
61026;BME280;46911;32.650;-16.902;2024-02-21T10:05:01;102649.88;;;25.54;49.68
61026;BME280;46911;32.650;-16.902;2024-02-21T10:07:04;102658.88;;;25.65;49.79
61026;BME280;46911;32.650;-16.902;2024-02-21T10:09:08;102649.63;;;26.28;49.38
61026;BME280;46911;32.650;-16.902;2024-02-21T10:11:22;102661.31;;;27.16;47.14
61026;BME280;46911;32.650;-16.902;2024-02-21T10:13:32;102650.09;;;26.50;47.76
61026;BME280;46911;32.650;-16.902;2024-02-21T10:15:33;102651.78;;;25.98;48.07
61026;BME280;46911;32.650;-16.902;2024-02-21T10:17:39;102655.22;;;26.00;48.05
61026;BME280;46911;32.650;-16.902;2024-02-21T10:19:44;102669.41;;;25.78;49.10
61026;BME280;46911;32.650;-16.902;2024-02-21T10:22:04;102658.97;;;26.78;46.90
61026;BME280;46911;32.650;-16.902;2024-02-21T10:24:05;102668.69;;;27.15;46.19
61026;BME280;46911;32.650;-16.902;2024-02-21T10:26:09;102669.59;;;26.55;46.37
61026;BME280;46911;32.650;-16.902;2024-02-21T10:28:12;102664.72;;;25.06;49.96
61026;BME280;46911;32.650;-16.902;2024-02-21T10:30:14;102657.59;;;25.77;48.79